Klamath Falls, OR (97601)

8:28 PM PDT on August 03, 2015 (GMT -0700)
Klamath Falls City Schools | | Change Station
CLOSE
Current Station
Personal Weather Station
Location: Klamath Falls, OR
Elevation: 4104 ft
Nearby Weather Stations
Active Advisory: Fire Weather Warning

Elev 4104 ft 42.22 °N, 121.75 °W | Updated 8 seconds ago

Partly Cloudy
Partly Cloudy
71.0 °F
Feels Like 77 °F
N
7.0
Wind Variable Wind from WNW
Gusts 18.0 mph

Today
High -- | Low -- °F
--% Chance of Precip.
Yesterday
High -- | Low -- °F
Precip. -- in
6:01 AM 8:24 PM
Waning Gibbous, 81% visible
Pressure 29.89 in
Visibility 10.0 miles
Clouds Clear
Heat Index 77 °F
Dew Point 49 °F
Humidity 46%
Rainfall 0.00 in
Snow Depth Not available.
UV 0 out of 12
Pollen 4.10 out of 12
Air Quality Not available.
Flu Activity Not available.
METAR KLMT 040253Z 29010KT 10SM CLR 21/13 A3000 RMK AO2 LTG DSNT N AND NE SLP120 60000 T02110133 51004

More Conditions Fewer Conditions

Pressure 29.89 in
Visibility 10.0 miles
Clouds Clear
Heat Index 77 °F
Dew Point 49 °F
Humidity 46%
Rainfall 0.00 in
Snow Depth Not available.
UV 0 out of 12
Pollen 4.10 out of 12
Air Quality Not available.
Flu Activity Not available.
METAR KLMT 040253Z 29010KT 10SM CLR 21/13 A3000 RMK AO2 LTG DSNT N AND NE SLP120 60000 T02110133 51004

More Conditions Fewer Conditions

10-Day Weather Forecast

×

Almanac

Astronomy

Aug. 03, 2015 Rise Set
Actual Time
Civil Twilight
Nautical Twilight
Astronomical Twilight
Moon
Length of Visible Light
Length of Day
Tomorrow will be .
, % of the Moon is Illuminated

Today's Extremes

State Highs State Lows

Community

WunderPhotos

Upload Photos

1,843,838 photos uploaded!

WunderBlogs® & News

Nearby

Air Quality

  Air Quality AQ Index Pollutant
Not available.

Snow Depth

Station Depth Elevation

Earthquake Activity

City Distance Mag. Time & Date
Minimum magnitude displayed is 2.5.

Coastal Water Temperatures

Place Temperature

Stations

Nearby Weather Stations

Station Location Temp. Windchill Dew Point Humidity Wind Precip. Elev Updated Type
                   
Fire Weather Warning
Statement as of 2:54 PM PDT on August 03, 2015

... Red flag warning remains in effect until 11 PM PDT this
evening...

* thunderstorms: scattered thunderstorms are expected to
redevelop this afternoon and continue into the evening.

* Impacts: increasing thunderstorm activity will create erratic
fire behavior.

* Affected area:
in south central or fire zones... 624... 625.
In southwest or fire zones... 617... 621... 623.

* Counties affected: lake and Harney.

Precautionary/preparedness actions...

A red flag warning means that extreme fire conditions are
occurring or imminent.